sensor_id;sensor_type;location;lat;lon;timestamp;temperature;humidity
19279;DHT22;9773;47.062;15.446;2023-05-14T00:01:38;11.20;99.90
19279;DHT22;9773;47.062;15.446;2023-05-14T00:04:04;11.20;99.90
19279;DHT22;9773;47.062;15.446;2023-05-14T00:06:30;11.20;99.90
19279;DHT22;9773;47.062;15.446;2023-05-14T00:08:56;11.10;99.90
19279;DHT22;9773;47.062;15.446;2023-05-14T00:11:22;11.20;99.90
19279;DHT22;9773;47.062;15.446;2023-05-14T00:13:48;11.20;99.90
19279;DHT22;9773;47.062;15.446;2023-05-14T00:16:14;11.10;99.90
19279;DHT22;9773;47.062;15.446;2023-05-14T00:18:40;11.10;99.90
19279;DHT22;9773;47.062;15.446;2023-05-14T00:21:06;11.10;99.90
19279;DHT22;9773;47.062;15.446;2023-05-14T00:23:34;11.10;99.90
19279;DHT22;9773;47.062;15.446;2023-05-14T00:26:03;11.10;99.90
19279;DHT22;9773;47.062;15.446;2023-05-14T00:28:29;11.10;99.90
19279;DHT22;9773;47.062;15.446;2023-05-14T00:30:55;11.20;99.90
19279;DHT22;9773;47.062;15.446;2023-05-14T00:33:21;11.20;99.90
19279;DHT22;9773;47.062;15.446;2023-05-14T00:35:47;11.20;99.90
19279;DHT22;9773;47.062;15.446;2023-05-14T00:38:14;11.10;99.90
19279;DHT22;9773;47.062;15.446;2023-05-14T00:40:44;11.10;99.90
19279;DHT22;9773;47.062;15.446;2023-05-14T00:43:14;11.10;99.90
19279;DHT22;9773;47.062;15.446;2023-05-14T00:45:40;11.20;99.90
19279;DHT22;9773;47.062;15.446;2023-05-14T00:48:06;11.10;99.90
19279;DHT22;9773;47.062;15.446;2023-05-14T00:50:32;11.20;99.90
19279;DHT22;9773;47.062;15.446;2023-05-14T00:52:59;11.20;99.90
19279;DHT22;9773;47.062;15.446;2023-05-14T00:55:25;11.20;99.90
19279;DHT22;9773;47.062;15.446;2023-05-14T00:57:53;11.20;99.90
19279;DHT22;9773;47.062;15.446;2023-05-14T01:00:22;11.20;99.90
19279;DHT22;9773;47.062;15.446;2023-05-14T01:02:48;11.20;99.90
19279;DHT22;9773;47.062;15.446;2023-05-14T01:05:13;11.20;99.90
19279;DHT22;9773;47.062;15.446;2023-05-14T01:07:53;11.10;99.90
19279;DHT22;9773;47.062;15.446;2023-05-14T01:10:34;11.20;99.90
19279;DHT22;9773;47.062;15.446;2023-05-14T01:16:08;11.20;99.90
19279;DHT22;9773;47.062;15.446;2023-05-14T01:18:36;11.30;99.90
19279;DHT22;9773;47.062;15.446;2023-05-14T01:21:01;11.30;99.90
19279;DHT22;9773;47.062;15.446;2023-05-14T01:23:27;11.20;99.90
19279;DHT22;9773;47.062;15.446;2023-05-14T01:25:53;11.20;99.90
19279;DHT22;9773;47.062;15.446;2023-05-14T01:28:22;11.30;99.90
19279;DHT22;9773;47.062;15.446;2023-05-14T01:30:57;11.30;99.90
19279;DHT22;9773;47.062;15.446;2023-05-14T01:33:28;11.30;99.90
19279;DHT22;9773;47.062;15.446;2023-05-14T01:35:55;11.30;99.90
19279;DHT22;9773;47.062;15.446;2023-05-14T01:38:23;11.40;99.90
19279;DHT22;9773;47.062;15.446;2023-05-14T01:40:50;11.40;99.90
19279;DHT22;9773;47.062;15.446;2023-05-14T01:43:18;11.40;99.90
19279;DHT22;9773;47.062;15.446;2023-05-14T01:45:43;11.40;99.90
19279;DHT22;9773;47.062;15.446;2023-05-14T01:48:09;11.50;99.90
19279;DHT22;9773;47.062;15.446;2023-05-14T01:50:35;11.50;99.90
19279;DHT22;9773;47.062;15.446;2023-05-14T01:53:01;11.50;99.90
19279;DHT22;9773;47.062;15.446;2023-05-14T01:55:26;11.60;99.90
19279;DHT22;9773;47.062;15.446;2023-05-14T01:57:53;11.50;99.90
19279;DHT22;9773;47.062;15.446;2023-05-14T02:00:19;11.50;99.90
19279;DHT22;9773;47.062;15.446;2023-05-14T02:02:45;11.50;99.90
19279;DHT22;9773;47.062;15.446;2023-05-14T02:05:12;11.50;99.90
19279;DHT22;9773;47.062;15.446;2023-05-14T02:07:38;11.50;99.90
19279;DHT22;9773;47.062;15.446;2023-05-14T02:10:04;11.50;99.90
19279;DHT22;9773;47.062;15.446;2023-05-14T02:12:30;11.60;99.90
19279;DHT22;9773;47.062;15.446;2023-05-14T02:14:55;11.60;99.90
19279;DHT22;9773;47.062;15.446;2023-05-14T02:17:21;11.60;99.90
19279;DHT22;9773;47.062;15.446;2023-05-14T02:19:47;11.50;99.90
19279;DHT22;9773;47.062;15.446;2023-05-14T02:22:13;11.50;99.90
19279;DHT22;9773;47.062;15.446;2023-05-14T02:24:38;11.50;99.90
19279;DHT22;9773;47.062;15.446;2023-05-14T02:27:04;11.60;99.90
19279;DHT22;9773;47.062;15.446;2023-05-14T02:29:30;11.60;99.90
19279;DHT22;9773;47.062;15.446;2023-05-14T02:31:56;11.60;99.90
19279;DHT22;9773;47.062;15.446;2023-05-14T02:34:22;11.60;99.90
19279;DHT22;9773;47.062;15.446;2023-05-14T02:36:48;11.60;99.90
19279;DHT22;9773;47.062;15.446;2023-05-14T02:39:13;11.60;99.90
19279;DHT22;9773;47.062;15.446;2023-05-14T02:41:39;11.70;99.90
19279;DHT22;9773;47.062;15.446;2023-05-14T02:44:05;11.60;99.90
19279;DHT22;9773;47.062;15.446;2023-05-14T02:46:31;11.70;99.90
19279;DHT22;9773;47.062;15.446;2023-05-14T02:48:57;11.60;99.90
19279;DHT22;9773;47.062;15.446;2023-05-14T02:51:23;11.70;99.90
19279;DHT22;9773;47.062;15.446;2023-05-14T02:53:49;11.70;99.90
19279;DHT22;9773;47.062;15.446;2023-05-14T02:56:15;11.70;99.90
19279;DHT22;9773;47.062;15.446;2023-05-14T02:58:41;11.60;99.90
19279;DHT22;9773;47.062;15.446;2023-05-14T03:01:06;11.50;99.90
19279;DHT22;9773;47.062;15.446;2023-05-14T03:03:34;11.50;99.90
19279;DHT22;9773;47.062;15.446;2023-05-14T03:06:03;11.50;99.90
19279;DHT22;9773;47.062;15.446;2023-05-14T03:08:28;11.50;99.90
19279;DHT22;9773;47.062;15.446;2023-05-14T03:10:56;11.50;99.90
19279;DHT22;9773;47.062;15.446;2023-05-14T03:13:21;11.40;99.90
19279;DHT22;9773;47.062;15.446;2023-05-14T03:15:47;11.40;99.90
19279;DHT22;9773;47.062;15.446;2023-05-14T03:18:13;11.40;99.90
19279;DHT22;9773;47.062;15.446;2023-05-14T03:20:41;11.30;99.90
19279;DHT22;9773;47.062;15.446;2023-05-14T03:23:06;11.30;99.90
19279;DHT22;9773;47.062;15.446;2023-05-14T03:25:32;11.30;99.90
19279;DHT22;9773;47.062;15.446;2023-05-14T03:27:59;11.30;99.90
19279;DHT22;9773;47.062;15.446;2023-05-14T03:30:24;11.40;99.90
19279;DHT22;9773;47.062;15.446;2023-05-14T03:32:50;11.40;99.90
19279;DHT22;9773;47.062;15.446;2023-05-14T03:35:16;11.30;99.90
19279;DHT22;9773;47.062;15.446;2023-05-14T03:37:42;11.40;99.90
19279;DHT22;9773;47.062;15.446;2023-05-14T03:40:08;11.40;99.90
19279;DHT22;9773;47.062;15.446;2023-05-14T03:42:34;11.40;99.90
19279;DHT22;9773;47.062;15.446;2023-05-14T03:44:59;11.40;99.90
19279;DHT22;9773;47.062;15.446;2023-05-14T03:47:25;11.40;99.90
19279;DHT22;9773;47.062;15.446;2023-05-14T03:49:51;11.30;99.90
19279;DHT22;9773;47.062;15.446;2023-05-14T03:52:16;11.30;99.90
19279;DHT22;9773;47.062;15.446;2023-05-14T03:54:42;11.30;99.90
19279;DHT22;9773;47.062;15.446;2023-05-14T03:57:08;11.40;99.90
19279;DHT22;9773;47.062;15.446;2023-05-14T03:59:34;11.30;99.90
19279;DHT22;9773;47.062;15.446;2023-05-14T04:01:59;11.30;99.90
19279;DHT22;9773;47.062;15.446;2023-05-14T04:04:25;11.30;99.90
19279;DHT22;9773;47.062;15.446;2023-05-14T04:06:51;11.40;99.90
19279;DHT22;9773;47.062;15.446;2023-05-14T04:09:16;11.40;99.90
19279;DHT22;9773;47.062;15.446;2023-05-14T04:11:42;11.40;99.90
19279;DHT22;9773;47.062;15.446;2023-05-14T04:14:08;11.30;99.90
19279;DHT22;9773;47.062;15.446;2023-05-14T04:16:34;11.30;99.90
19279;DHT22;9773;47.062;15.446;2023-05-14T04:19:01;11.30;99.90
19279;DHT22;9773;47.062;15.446;2023-05-14T04:21:29;11.40;99.90
19279;DHT22;9773;47.062;15.446;2023-05-14T04:23:54;11.50;99.90
19279;DHT22;9773;47.062;15.446;2023-05-14T04:26:20;11.40;99.90
19279;DHT22;9773;47.062;15.446;2023-05-14T04:28:46;11.30;99.90
19279;DHT22;9773;47.062;15.446;2023-05-14T04:31:12;11.30;99.90
19279;DHT22;9773;47.062;15.446;2023-05-14T04:33:37;11.30;99.90
19279;DHT22;9773;47.062;15.446;2023-05-14T04:36:04;11.30;99.90
19279;DHT22;9773;47.062;15.446;2023-05-14T04:38:30;11.20;99.90
19279;DHT22;9773;47.062;15.446;2023-05-14T04:40:56;11.20;99.90
19279;DHT22;9773;47.062;15.446;2023-05-14T04:43:22;11.20;99.90
19279;DHT22;9773;47.062;15.446;2023-05-14T04:45:48;11.20;99.90
19279;DHT22;9773;47.062;15.446;2023-05-14T04:48:15;11.20;99.90
19279;DHT22;9773;47.062;15.446;2023-05-14T04:50:41;11.20;99.90
19279;DHT22;9773;47.062;15.446;2023-05-14T04:53:09;11.20;99.90
19279;DHT22;9773;47.062;15.446;2023-05-14T04:55:35;11.20;99.90
19279;DHT22;9773;47.062;15.446;2023-05-14T04:58:01;11.20;99.90
19279;DHT22;9773;47.062;15.446;2023-05-14T05:00:28;11.20;99.90
19279;DHT22;9773;47.062;15.446;2023-05-14T05:02:53;11.20;99.90
19279;DHT22;9773;47.062;15.446;2023-05-14T05:05:20;11.30;99.90
19279;DHT22;9773;47.062;15.446;2023-05-14T05:07:45;11.30;99.90
19279;DHT22;9773;47.062;15.446;2023-05-14T05:10:11;11.30;99.90
19279;DHT22;9773;47.062;15.446;2023-05-14T05:12:37;11.30;99.90
19279;DHT22;9773;47.062;15.446;2023-05-14T05:15:04;11.30;99.90
19279;DHT22;9773;47.062;15.446;2023-05-14T05:17:31;11.30;99.90
19279;DHT22;9773;47.062;15.446;2023-05-14T05:19:57;11.30;99.90
19279;DHT22;9773;47.062;15.446;2023-05-14T05:22:23;11.30;99.90
19279;DHT22;9773;47.062;15.446;2023-05-14T05:24:48;11.30;99.90
19279;DHT22;9773;47.062;15.446;2023-05-14T05:27:14;11.30;99.90
19279;DHT22;9773;47.062;15.446;2023-05-14T05:29:40;11.30;99.90
19279;DHT22;9773;47.062;15.446;2023-05-14T05:32:06;11.30;99.90
19279;DHT22;9773;47.062;15.446;2023-05-14T05:34:32;11.40;99.90
19279;DHT22;9773;47.062;15.446;2023-05-14T05:36:58;11.30;99.90
19279;DHT22;9773;47.062;15.446;2023-05-14T05:39:24;11.30;99.90
19279;DHT22;9773;47.062;15.446;2023-05-14T05:41:50;11.40;99.90
19279;DHT22;9773;47.062;15.446;2023-05-14T05:44:15;11.40;99.90
19279;DHT22;9773;47.062;15.446;2023-05-14T05:46:41;11.50;99.90
19279;DHT22;9773;47.062;15.446;2023-05-14T05:49:07;11.40;99.90
19279;DHT22;9773;47.062;15.446;2023-05-14T05:51:32;11.50;99.90
19279;DHT22;9773;47.062;15.446;2023-05-14T05:53:58;11.50;99.90
19279;DHT22;9773;47.062;15.446;2023-05-14T05:56:24;11.50;99.90
19279;DHT22;9773;47.062;15.446;2023-05-14T05:58:50;11.50;99.90
19279;DHT22;9773;47.062;15.446;2023-05-14T06:01:16;11.50;99.90
19279;DHT22;9773;47.062;15.446;2023-05-14T06:03:41;11.60;99.90
19279;DHT22;9773;47.062;15.446;2023-05-14T06:06:07;11.50;99.90
19279;DHT22;9773;47.062;15.446;2023-05-14T06:08:33;11.50;99.90
19279;DHT22;9773;47.062;15.446;2023-05-14T06:10:58;11.60;99.90
19279;DHT22;9773;47.062;15.446;2023-05-14T06:13:24;11.50;99.90
19279;DHT22;9773;47.062;15.446;2023-05-14T06:15:50;11.50;99.90
19279;DHT22;9773;47.062;15.446;2023-05-14T06:18:15;11.60;99.90
19279;DHT22;9773;47.062;15.446;2023-05-14T06:20:41;11.50;99.90
19279;DHT22;9773;47.062;15.446;2023-05-14T06:23:07;11.50;99.90
19279;DHT22;9773;47.062;15.446;2023-05-14T06:25:34;11.50;99.90
19279;DHT22;9773;47.062;15.446;2023-05-14T06:28:00;11.40;99.90
19279;DHT22;9773;47.062;15.446;2023-05-14T06:30:26;11.40;99.90
19279;DHT22;9773;47.062;15.446;2023-05-14T06:32:51;11.40;99.90
19279;DHT22;9773;47.062;15.446;2023-05-14T06:35:18;11.40;99.90
19279;DHT22;9773;47.062;15.446;2023-05-14T06:37:44;11.50;99.90
19279;DHT22;9773;47.062;15.446;2023-05-14T06:40:11;11.60;99.90
19279;DHT22;9773;47.062;15.446;2023-05-14T06:42:37;11.50;99.90
19279;DHT22;9773;47.062;15.446;2023-05-14T06:45:03;11.50;99.90
19279;DHT22;9773;47.062;15.446;2023-05-14T06:47:30;11.40;99.90
19279;DHT22;9773;47.062;15.446;2023-05-14T06:49:55;11.50;99.90
19279;DHT22;9773;47.062;15.446;2023-05-14T06:52:23;11.40;99.90
19279;DHT22;9773;47.062;15.446;2023-05-14T06:54:49;11.40;99.90
19279;DHT22;9773;47.062;15.446;2023-05-14T06:57:15;11.40;99.90
19279;DHT22;9773;47.062;15.446;2023-05-14T06:59:40;11.50;99.90
19279;DHT22;9773;47.062;15.446;2023-05-14T07:02:06;11.50;99.90
19279;DHT22;9773;47.062;15.446;2023-05-14T07:04:32;13.90;99.90
19279;DHT22;9773;47.062;15.446;2023-05-14T07:06:58;11.60;99.90
19279;DHT22;9773;47.062;15.446;2023-05-14T07:09:24;11.50;99.90
19279;DHT22;9773;47.062;15.446;2023-05-14T07:11:50;11.60;99.90
19279;DHT22;9773;47.062;15.446;2023-05-14T07:14:18;11.60;99.90
19279;DHT22;9773;47.062;15.446;2023-05-14T07:16:44;11.60;99.90
19279;DHT22;9773;47.062;15.446;2023-05-14T07:19:11;11.50;99.90
19279;DHT22;9773;47.062;15.446;2023-05-14T07:21:37;11.50;99.90
19279;DHT22;9773;47.062;15.446;2023-05-14T07:24:03;11.60;99.90
19279;DHT22;9773;47.062;15.446;2023-05-14T07:26:28;11.60;99.90
19279;DHT22;9773;47.062;15.446;2023-05-14T07:28:54;11.60;99.90
19279;DHT22;9773;47.062;15.446;2023-05-14T07:31:20;11.60;99.90
19279;DHT22;9773;47.062;15.446;2023-05-14T07:33:46;11.60;99.90
19279;DHT22;9773;47.062;15.446;2023-05-14T07:36:12;11.60;99.90
19279;DHT22;9773;47.062;15.446;2023-05-14T07:38:38;11.60;99.90
19279;DHT22;9773;47.062;15.446;2023-05-14T07:41:04;11.60;99.90
19279;DHT22;9773;47.062;15.446;2023-05-14T07:43:29;11.70;99.90
19279;DHT22;9773;47.062;15.446;2023-05-14T07:45:55;11.70;99.90
19279;DHT22;9773;47.062;15.446;2023-05-14T07:48:21;11.70;99.90
19279;DHT22;9773;47.062;15.446;2023-05-14T07:50:48;11.80;99.90
19279;DHT22;9773;47.062;15.446;2023-05-14T07:53:14;11.60;99.90
19279;DHT22;9773;47.062;15.446;2023-05-14T07:55:40;11.70;99.90
19279;DHT22;9773;47.062;15.446;2023-05-14T07:58:06;11.70;99.90
19279;DHT22;9773;47.062;15.446;2023-05-14T08:00:32;11.60;99.90
19279;DHT22;9773;47.062;15.446;2023-05-14T08:02:58;11.60;99.90
19279;DHT22;9773;47.062;15.446;2023-05-14T08:05:23;11.70;99.90
19279;DHT22;9773;47.062;15.446;2023-05-14T08:07:49;11.80;99.90
19279;DHT22;9773;47.062;15.446;2023-05-14T08:10:15;11.80;99.90
19279;DHT22;9773;47.062;15.446;2023-05-14T08:12:41;11.90;99.90
19279;DHT22;9773;47.062;15.446;2023-05-14T08:15:08;11.90;99.90
19279;DHT22;9773;47.062;15.446;2023-05-14T08:17:34;12.00;99.90
19279;DHT22;9773;47.062;15.446;2023-05-14T08:20:00;12.00;99.90
19279;DHT22;9773;47.062;15.446;2023-05-14T08:22:27;11.90;99.90
19279;DHT22;9773;47.062;15.446;2023-05-14T08:24:52;11.90;99.90
19279;DHT22;9773;47.062;15.446;2023-05-14T08:27:18;11.90;99.90
19279;DHT22;9773;47.062;15.446;2023-05-14T08:29:44;11.80;99.90
19279;DHT22;9773;47.062;15.446;2023-05-14T08:32:09;11.90;99.90
19279;DHT22;9773;47.062;15.446;2023-05-14T08:34:35;11.90;99.90
19279;DHT22;9773;47.062;15.446;2023-05-14T08:37:01;11.80;99.90
19279;DHT22;9773;47.062;15.446;2023-05-14T08:39:27;11.80;99.90
19279;DHT22;9773;47.062;15.446;2023-05-14T08:41:54;11.70;99.90
19279;DHT22;9773;47.062;15.446;2023-05-14T08:44:37;11.80;99.90
19279;DHT22;9773;47.062;15.446;2023-05-14T08:47:04;11.80;99.90
19279;DHT22;9773;47.062;15.446;2023-05-14T08:49:40;11.80;99.90
19279;DHT22;9773;47.062;15.446;2023-05-14T08:52:09;11.80;99.90
19279;DHT22;9773;47.062;15.446;2023-05-14T08:54:35;11.90;99.90
19279;DHT22;9773;47.062;15.446;2023-05-14T08:57:03;11.80;99.90
19279;DHT22;9773;47.062;15.446;2023-05-14T08:59:29;12.00;99.90
19279;DHT22;9773;47.062;15.446;2023-05-14T09:01:58;12.00;99.90
19279;DHT22;9773;47.062;15.446;2023-05-14T09:04:25;11.90;99.90
19279;DHT22;9773;47.062;15.446;2023-05-14T09:06:53;12.00;99.90
19279;DHT22;9773;47.062;15.446;2023-05-14T09:09:19;11.80;99.90
19279;DHT22;9773;47.062;15.446;2023-05-14T09:11:48;11.80;99.90
19279;DHT22;9773;47.062;15.446;2023-05-14T09:14:14;11.90;99.90
19279;DHT22;9773;47.062;15.446;2023-05-14T09:16:40;11.90;99.90
19279;DHT22;9773;47.062;15.446;2023-05-14T09:19:08;11.80;99.90
19279;DHT22;9773;47.062;15.446;2023-05-14T09:21:34;11.90;99.90
19279;DHT22;9773;47.062;15.446;2023-05-14T09:23:59;11.80;99.90
19279;DHT22;9773;47.062;15.446;2023-05-14T09:26:26;11.80;99.90
19279;DHT22;9773;47.062;15.446;2023-05-14T09:28:57;11.70;99.90
19279;DHT22;9773;47.062;15.446;2023-05-14T09:31:31;11.70;99.90
19279;DHT22;9773;47.062;15.446;2023-05-14T09:33:57;11.80;99.90
19279;DHT22;9773;47.062;15.446;2023-05-14T09:36:24;11.60;99.90
19279;DHT22;9773;47.062;15.446;2023-05-14T09:38:52;11.70;99.90
19279;DHT22;9773;47.062;15.446;2023-05-14T09:41:17;11.70;99.90
19279;DHT22;9773;47.062;15.446;2023-05-14T09:43:44;11.70;99.90
19279;DHT22;9773;47.062;15.446;2023-05-14T09:46:09;11.70;99.90
19279;DHT22;9773;47.062;15.446;2023-05-14T09:48:35;11.70;99.90
19279;DHT22;9773;47.062;15.446;2023-05-14T09:51:01;11.70;99.90
19279;DHT22;9773;47.062;15.446;2023-05-14T09:53:27;11.60;99.90
19279;DHT22;9773;47.062;15.446;2023-05-14T09:55:54;11.70;99.90
19279;DHT22;9773;47.062;15.446;2023-05-14T09:58:19;11.80;99.90
19279;DHT22;9773;47.062;15.446;2023-05-14T10:00:45;11.70;99.90
19279;DHT22;9773;47.062;15.446;2023-05-14T10:03:13;11.60;99.90
19279;DHT22;9773;47.062;15.446;2023-05-14T10:05:40;11.70;99.90
19279;DHT22;9773;47.062;15.446;2023-05-14T10:08:24;11.70;99.90
19279;DHT22;9773;47.062;15.446;2023-05-14T10:10:53;11.70;99.90
19279;DHT22;9773;47.062;15.446;2023-05-14T10:13:21;11.70;99.90
19279;DHT22;9773;47.062;15.446;2023-05-14T10:15:54;11.80;99.90
19279;DHT22;9773;47.062;15.446;2023-05-14T10:18:22;12.00;99.90
19279;DHT22;9773;47.062;15.446;2023-05-14T10:20:59;12.00;99.90
19279;DHT22;9773;47.062;15.446;2023-05-14T10:23:28;12.10;99.90
19279;DHT22;9773;47.062;15.446;2023-05-14T10:25:54;12.30;99.90
19279;DHT22;9773;47.062;15.446;2023-05-14T10:28:20;12.60;99.90
19279;DHT22;9773;47.062;15.446;2023-05-14T10:30:46;12.70;99.90
19279;DHT22;9773;47.062;15.446;2023-05-14T10:33:13;12.70;99.90
19279;DHT22;9773;47.062;15.446;2023-05-14T10:35:52;12.70;99.90
19279;DHT22;9773;47.062;15.446;2023-05-14T10:38:22;12.90;99.90
19279;DHT22;9773;47.062;15.446;2023-05-14T10:40:48;12.50;99.90
19279;DHT22;9773;47.062;15.446;2023-05-14T10:43:15;13.00;99.90
19279;DHT22;9773;47.062;15.446;2023-05-14T10:45:43;12.90;99.90
19279;DHT22;9773;47.062;15.446;2023-05-14T10:48:09;13.00;99.90
19279;DHT22;9773;47.062;15.446;2023-05-14T10:50:35;13.00;99.90
19279;DHT22;9773;47.062;15.446;2023-05-14T10:53:01;13.00;99.90
19279;DHT22;9773;47.062;15.446;2023-05-14T10:55:27;13.10;99.90
19279;DHT22;9773;47.062;15.446;2023-05-14T10:57:53;12.90;99.90
19279;DHT22;9773;47.062;15.446;2023-05-14T11:00:18;12.80;99.90
19279;DHT22;9773;47.062;15.446;2023-05-14T11:02:45;12.70;99.90
19279;DHT22;9773;47.062;15.446;2023-05-14T11:05:13;12.60;99.90
19279;DHT22;9773;47.062;15.446;2023-05-14T11:07:43;12.50;99.90
19279;DHT22;9773;47.062;15.446;2023-05-14T11:10:14;12.50;99.90
19279;DHT22;9773;47.062;15.446;2023-05-14T11:12:45;12.40;99.90
19279;DHT22;9773;47.062;15.446;2023-05-14T11:15:14;12.60;99.90
19279;DHT22;9773;47.062;15.446;2023-05-14T11:17:42;12.50;99.90
19279;DHT22;9773;47.062;15.446;2023-05-14T11:20:09;12.60;99.90
19279;DHT22;9773;47.062;15.446;2023-05-14T11:22:36;12.50;99.90
19279;DHT22;9773;47.062;15.446;2023-05-14T11:25:03;12.50;99.90
19279;DHT22;9773;47.062;15.446;2023-05-14T11:27:30;12.50;99.90
19279;DHT22;9773;47.062;15.446;2023-05-14T11:29:56;12.60;99.90
19279;DHT22;9773;47.062;15.446;2023-05-14T11:32:22;12.60;99.90
19279;DHT22;9773;47.062;15.446;2023-05-14T11:34:48;12.60;99.90
19279;DHT22;9773;47.062;15.446;2023-05-14T11:37:15;12.60;99.90
19279;DHT22;9773;47.062;15.446;2023-05-14T11:39:52;12.60;99.90
19279;DHT22;9773;47.062;15.446;2023-05-14T11:42:19;12.60;99.90
19279;DHT22;9773;47.062;15.446;2023-05-14T11:44:50;12.50;99.90
19279;DHT22;9773;47.062;15.446;2023-05-14T11:47:17;12.40;99.90
19279;DHT22;9773;47.062;15.446;2023-05-14T11:49:44;12.30;99.90
19279;DHT22;9773;47.062;15.446;2023-05-14T11:52:10;12.40;99.90
19279;DHT22;9773;47.062;15.446;2023-05-14T11:54:39;12.40;99.90
19279;DHT22;9773;47.062;15.446;2023-05-14T11:57:14;12.40;99.90
19279;DHT22;9773;47.062;15.446;2023-05-14T11:59:41;12.40;99.90
19279;DHT22;9773;47.062;15.446;2023-05-14T12:02:11;12.40;99.90
19279;DHT22;9773;47.062;15.446;2023-05-14T12:04:37;12.50;99.90
19279;DHT22;9773;47.062;15.446;2023-05-14T12:07:11;12.50;99.90
19279;DHT22;9773;47.062;15.446;2023-05-14T12:09:39;12.50;99.90
19279;DHT22;9773;47.062;15.446;2023-05-14T12:12:10;12.30;99.90
19279;DHT22;9773;47.062;15.446;2023-05-14T12:14:37;12.40;99.90
19279;DHT22;9773;47.062;15.446;2023-05-14T12:17:16;12.40;99.90
19279;DHT22;9773;47.062;15.446;2023-05-14T12:19:44;12.40;99.90
19279;DHT22;9773;47.062;15.446;2023-05-14T12:22:11;12.30;99.90
19279;DHT22;9773;47.062;15.446;2023-05-14T12:24:38;12.30;99.90
19279;DHT22;9773;47.062;15.446;2023-05-14T12:27:06;12.20;99.90
19279;DHT22;9773;47.062;15.446;2023-05-14T12:29:37;12.10;99.90
19279;DHT22;9773;47.062;15.446;2023-05-14T12:32:07;12.10;99.90
19279;DHT22;9773;47.062;15.446;2023-05-14T12:34:34;12.00;99.90
19279;DHT22;9773;47.062;15.446;2023-05-14T12:37:01;12.00;99.90
19279;DHT22;9773;47.062;15.446;2023-05-14T12:39:27;12.00;99.90
19279;DHT22;9773;47.062;15.446;2023-05-14T12:41:52;12.00;99.90
19279;DHT22;9773;47.062;15.446;2023-05-14T12:44:18;12.10;99.90
19279;DHT22;9773;47.062;15.446;2023-05-14T12:46:44;12.00;99.90
19279;DHT22;9773;47.062;15.446;2023-05-14T12:49:10;11.80;99.90
19279;DHT22;9773;47.062;15.446;2023-05-14T12:51:36;11.80;99.90
19279;DHT22;9773;47.062;15.446;2023-05-14T12:54:01;11.80;99.90
19279;DHT22;9773;47.062;15.446;2023-05-14T12:56:27;11.70;99.90
19279;DHT22;9773;47.062;15.446;2023-05-14T12:58:55;11.70;99.90
19279;DHT22;9773;47.062;15.446;2023-05-14T13:01:22;11.80;99.90
19279;DHT22;9773;47.062;15.446;2023-05-14T13:03:48;11.80;99.90
19279;DHT22;9773;47.062;15.446;2023-05-14T13:06:14;11.70;99.90
19279;DHT22;9773;47.062;15.446;2023-05-14T13:08:40;11.80;99.90
19279;DHT22;9773;47.062;15.446;2023-05-14T13:11:05;11.80;99.90
19279;DHT22;9773;47.062;15.446;2023-05-14T13:13:32;11.70;99.90
19279;DHT22;9773;47.062;15.446;2023-05-14T13:15:58;11.70;99.90
19279;DHT22;9773;47.062;15.446;2023-05-14T13:18:24;11.70;99.90
19279;DHT22;9773;47.062;15.446;2023-05-14T13:20:51;11.70;99.90
19279;DHT22;9773;47.062;15.446;2023-05-14T13:23:17;11.90;99.90
19279;DHT22;9773;47.062;15.446;2023-05-14T13:25:43;11.90;99.90
19279;DHT22;9773;47.062;15.446;2023-05-14T13:28:08;11.90;99.90
19279;DHT22;9773;47.062;15.446;2023-05-14T13:30:34;11.80;99.90
19279;DHT22;9773;47.062;15.446;2023-05-14T13:33:00;11.80;99.90
19279;DHT22;9773;47.062;15.446;2023-05-14T13:35:25;11.70;99.90
19279;DHT22;9773;47.062;15.446;2023-05-14T13:37:51;11.70;99.90
19279;DHT22;9773;47.062;15.446;2023-05-14T13:40:17;11.70;99.90
19279;DHT22;9773;47.062;15.446;2023-05-14T13:42:43;11.70;99.90
19279;DHT22;9773;47.062;15.446;2023-05-14T13:45:09;11.70;99.90
19279;DHT22;9773;47.062;15.446;2023-05-14T13:47:36;11.60;99.90
19279;DHT22;9773;47.062;15.446;2023-05-14T13:50:01;11.50;99.90
19279;DHT22;9773;47.062;15.446;2023-05-14T13:52:27;11.70;99.90
19279;DHT22;9773;47.062;15.446;2023-05-14T13:54:53;11.80;99.90
19279;DHT22;9773;47.062;15.446;2023-05-14T13:57:20;11.70;99.90
19279;DHT22;9773;47.062;15.446;2023-05-14T13:59:46;11.80;99.90
19279;DHT22;9773;47.062;15.446;2023-05-14T14:02:12;11.80;99.90
19279;DHT22;9773;47.062;15.446;2023-05-14T14:04:38;11.80;99.90
19279;DHT22;9773;47.062;15.446;2023-05-14T14:07:04;11.80;99.90
19279;DHT22;9773;47.062;15.446;2023-05-14T14:09:29;11.70;99.90
19279;DHT22;9773;47.062;15.446;2023-05-14T14:12:03;11.60;99.90
19279;DHT22;9773;47.062;15.446;2023-05-14T14:14:29;11.70;99.90
19279;DHT22;9773;47.062;15.446;2023-05-14T14:16:54;11.60;99.90
19279;DHT22;9773;47.062;15.446;2023-05-14T14:19:20;11.60;99.90
19279;DHT22;9773;47.062;15.446;2023-05-14T14:21:46;11.70;99.90
19279;DHT22;9773;47.062;15.446;2023-05-14T14:24:12;11.60;99.90
19279;DHT22;9773;47.062;15.446;2023-05-14T14:26:37;11.70;99.90
19279;DHT22;9773;47.062;15.446;2023-05-14T14:29:03;11.60;99.90
19279;DHT22;9773;47.062;15.446;2023-05-14T14:31:29;11.60;99.90
19279;DHT22;9773;47.062;15.446;2023-05-14T14:33:55;11.70;99.90
19279;DHT22;9773;47.062;15.446;2023-05-14T14:36:20;11.70;99.90
19279;DHT22;9773;47.062;15.446;2023-05-14T14:38:46;11.70;99.90
19279;DHT22;9773;47.062;15.446;2023-05-14T14:41:12;11.70;99.90
19279;DHT22;9773;47.062;15.446;2023-05-14T14:43:38;11.70;99.90
19279;DHT22;9773;47.062;15.446;2023-05-14T14:46:04;11.60;99.90
19279;DHT22;9773;47.062;15.446;2023-05-14T14:48:34;11.60;99.90
19279;DHT22;9773;47.062;15.446;2023-05-14T14:51:04;11.60;99.90
19279;DHT22;9773;47.062;15.446;2023-05-14T14:53:31;11.60;99.90
19279;DHT22;9773;47.062;15.446;2023-05-14T14:55:57;11.70;99.90
19279;DHT22;9773;47.062;15.446;2023-05-14T14:58:23;11.60;99.90
19279;DHT22;9773;47.062;15.446;2023-05-14T15:00:52;11.70;99.90
19279;DHT22;9773;47.062;15.446;2023-05-14T15:03:18;11.70;99.90
19279;DHT22;9773;47.062;15.446;2023-05-14T15:05:44;11.60;99.90
19279;DHT22;9773;47.062;15.446;2023-05-14T15:08:10;11.60;99.90
19279;DHT22;9773;47.062;15.446;2023-05-14T15:10:36;11.60;99.90
19279;DHT22;9773;47.062;15.446;2023-05-14T15:13:03;11.60;99.90
19279;DHT22;9773;47.062;15.446;2023-05-14T15:15:29;11.70;99.90
19279;DHT22;9773;47.062;15.446;2023-05-14T15:17:56;11.60;99.90
19279;DHT22;9773;47.062;15.446;2023-05-14T15:20:22;11.60;99.90
19279;DHT22;9773;47.062;15.446;2023-05-14T15:22:47;11.70;99.90
19279;DHT22;9773;47.062;15.446;2023-05-14T15:25:17;11.70;99.90
19279;DHT22;9773;47.062;15.446;2023-05-14T15:27:43;11.70;99.90
19279;DHT22;9773;47.062;15.446;2023-05-14T15:30:09;11.70;99.90